createdAt,value
2023-05-12T00:00:31.000Z,98
2023-05-12T00:01:58.000Z,99
2023-05-12T00:04:04.000Z,99
2023-05-12T00:05:30.000Z,100
2023-05-12T00:07:37.000Z,100
2023-05-12T00:09:03.000Z,100
2023-05-12T00:11:09.000Z,100
2023-05-12T00:12:36.000Z,100
2023-05-12T00:14:42.000Z,100
2023-05-12T00:17:33.000Z,100
2023-05-12T00:18:59.000Z,100
2023-05-12T00:21:06.000Z,100
2023-05-12T00:22:32.000Z,100
2023-05-12T00:24:38.000Z,100
2023-05-12T00:26:05.000Z,100
2023-05-12T00:28:11.000Z,100
2023-05-12T00:29:37.000Z,100
2023-05-12T00:31:43.000Z,100
2023-05-12T00:33:10.000Z,100
2023-05-12T00:35:16.000Z,99
2023-05-12T00:36:42.000Z,99
2023-05-12T00:38:48.000Z,100
2023-05-12T00:40:15.000Z,99
2023-05-12T00:42:21.000Z,99
2023-05-12T00:43:48.000Z,98
2023-05-12T00:45:54.000Z,99
2023-05-12T00:47:20.000Z,99
2023-05-12T00:49:26.000Z,99
2023-05-12T00:50:53.000Z,99
2023-05-12T00:52:59.000Z,98
2023-05-12T00:55:50.000Z,99
2023-05-12T00:57:17.000Z,99
2023-05-12T00:59:23.000Z,99
2023-05-12T01:00:49.000Z,99
2023-05-12T01:02:55.000Z,99
2023-05-12T01:04:22.000Z,99
2023-05-12T01:06:28.000Z,98
2023-05-12T01:07:55.000Z,99
2023-05-12T01:10:01.000Z,99
2023-05-12T01:11:27.000Z,99
2023-05-12T01:13:33.000Z,99
2023-05-12T01:15:00.000Z,99
2023-05-12T01:17:06.000Z,99
2023-05-12T01:18:32.000Z,99
2023-05-12T01:20:39.000Z,99
2023-05-12T01:22:05.000Z,99
2023-05-12T01:24:11.000Z,100
2023-05-12T01:25:38.000Z,100
2023-05-12T01:27:44.000Z,100
2023-05-12T01:29:11.000Z,100
2023-05-12T01:31:17.000Z,100
2023-05-12T01:34:11.000Z,100
2023-05-12T01:35:38.000Z,100
2023-05-12T01:37:44.000Z,100
2023-05-12T01:39:11.000Z,100
2023-05-12T01:41:17.000Z,100
2023-05-12T01:42:43.000Z,100
2023-05-12T01:44:49.000Z,100
2023-05-12T01:46:16.000Z,100
2023-05-12T01:48:22.000Z,100
2023-05-12T01:49:48.000Z,100
2023-05-12T01:51:54.000Z,100
2023-05-12T01:53:21.000Z,100
2023-05-12T01:55:27.000Z,100
2023-05-12T01:56:54.000Z,100
2023-05-12T01:59:00.000Z,100
2023-05-12T02:00:26.000Z,100
2023-05-12T02:02:32.000Z,100
2023-05-12T02:03:59.000Z,100
2023-05-12T02:09:57.000Z,100
2023-05-12T02:12:49.000Z,100
2023-05-12T02:14:15.000Z,100
2023-05-12T02:16:21.000Z,100
2023-05-12T02:17:48.000Z,100
2023-05-12T02:19:54.000Z,100
2023-05-12T02:21:20.000Z,100
2023-05-12T02:23:27.000Z,100
2023-05-12T02:24:53.000Z,100
2023-05-12T02:26:59.000Z,100
2023-05-12T02:28:26.000Z,100
2023-05-12T02:30:32.000Z,100
2023-05-12T02:31:58.000Z,100
2023-05-12T02:34:04.000Z,100
2023-05-12T02:35:33.000Z,100
2023-05-12T02:37:39.000Z,100
2023-05-12T02:39:05.000Z,100
2023-05-12T02:41:11.000Z,100
2023-05-12T02:42:38.000Z,100
2023-05-12T02:44:44.000Z,100
2023-05-12T02:46:11.000Z,100
2023-05-12T02:48:17.000Z,100
2023-05-12T02:51:08.000Z,100
2023-05-12T02:52:34.000Z,100
2023-05-12T02:54:41.000Z,100
2023-05-12T02:56:07.000Z,100
2023-05-12T02:58:13.000Z,100
2023-05-12T02:59:40.000Z,100
2023-05-12T03:01:46.000Z,100
2023-05-12T03:03:13.000Z,100
2023-05-12T03:05:19.000Z,100
2023-05-12T03:06:45.000Z,100
2023-05-12T03:08:52.000Z,100
2023-05-12T03:10:18.000Z,100
2023-05-12T03:12:25.000Z,100
2023-05-12T03:13:51.000Z,100
2023-05-12T03:15:57.000Z,100
2023-05-12T03:17:24.000Z,100
2023-05-12T03:19:30.000Z,100
2023-05-12T03:20:57.000Z,100
2023-05-12T03:23:03.000Z,100
2023-05-12T03:24:29.000Z,100
2023-05-12T03:26:36.000Z,100
2023-05-12T03:29:27.000Z,100
2023-05-12T03:30:53.000Z,100
2023-05-12T03:32:59.000Z,100
2023-05-12T03:34:26.000Z,100
2023-05-12T03:36:32.000Z,100
2023-05-12T03:37:59.000Z,100
2023-05-12T03:40:05.000Z,100
2023-05-12T03:41:31.000Z,100
2023-05-12T03:43:37.000Z,100
2023-05-12T03:45:04.000Z,100
2023-05-12T03:47:10.000Z,100
2023-05-12T03:48:37.000Z,100
2023-05-12T03:50:43.000Z,100
2023-05-12T03:52:09.000Z,100
2023-05-12T03:54:15.000Z,100
2023-05-12T03:55:42.000Z,100
2023-05-12T03:57:48.000Z,100
2023-05-12T03:59:15.000Z,100
2023-05-12T04:01:21.000Z,100
2023-05-12T04:02:47.000Z,100
2023-05-12T04:04:53.000Z,100
2023-05-12T04:07:45.000Z,100
2023-05-12T04:09:11.000Z,100
2023-05-12T04:11:18.000Z,100
2023-05-12T04:12:45.000Z,100
2023-05-12T04:14:51.000Z,100
2023-05-12T04:16:18.000Z,100
2023-05-12T04:18:24.000Z,100
2023-05-12T04:19:50.000Z,100
2023-05-12T04:21:56.000Z,100
2023-05-12T04:23:23.000Z,100
2023-05-12T04:25:29.000Z,100
2023-05-12T04:26:56.000Z,100
2023-05-12T04:29:02.000Z,100
2023-05-12T04:30:28.000Z,100
2023-05-12T04:32:34.000Z,100
2023-05-12T04:34:01.000Z,100
2023-05-12T04:36:07.000Z,100
2023-05-12T04:37:34.000Z,100
2023-05-12T04:39:40.000Z,100
2023-05-12T04:41:06.000Z,100
2023-05-12T04:43:12.000Z,100
2023-05-12T04:46:51.000Z,100
2023-05-12T04:48:17.000Z,100
2023-05-12T04:50:23.000Z,100
2023-05-12T04:51:50.000Z,100
2023-05-12T04:53:56.000Z,100
2023-05-12T04:55:22.000Z,100
2023-05-12T04:57:28.000Z,100
2023-05-12T04:58:55.000Z,100
2023-05-12T05:01:01.000Z,100
2023-05-12T05:02:28.000Z,100
2023-05-12T05:04:34.000Z,100
2023-05-12T05:06:00.000Z,100
2023-05-12T05:08:07.000Z,100
2023-05-12T05:09:33.000Z,100
2023-05-12T05:11:42.000Z,100
2023-05-12T05:13:09.000Z,100
2023-05-12T05:15:15.000Z,100
2023-05-12T05:16:41.000Z,100
2023-05-12T05:18:47.000Z,100
2023-05-12T05:20:14.000Z,100
2023-05-12T05:22:21.000Z,100
2023-05-12T05:25:12.000Z,100
2023-05-12T05:26:39.000Z,100
2023-05-12T05:28:45.000Z,100
2023-05-12T05:30:12.000Z,100
2023-05-12T05:32:18.000Z,100
2023-05-12T05:33:44.000Z,100
2023-05-12T05:35:50.000Z,100
2023-05-12T05:37:17.000Z,100
2023-05-12T05:39:23.000Z,100
2023-05-12T05:40:50.000Z,100
2023-05-12T05:43:00.000Z,100
2023-05-12T05:44:27.000Z,100
2023-05-12T05:46:33.000Z,100
2023-05-12T05:47:59.000Z,100
2023-05-12T05:50:05.000Z,100
2023-05-12T05:51:32.000Z,100
2023-05-12T05:53:38.000Z,100
2023-05-12T05:55:05.000Z,100
2023-05-12T05:57:11.000Z,100
2023-05-12T05:58:37.000Z,100
2023-05-12T06:00:43.000Z,99
2023-05-12T06:03:34.000Z,100
2023-05-12T06:05:01.000Z,100
2023-05-12T06:07:07.000Z,100
2023-05-12T06:08:34.000Z,100
2023-05-12T06:10:40.000Z,100
2023-05-12T06:12:06.000Z,100
2023-05-12T06:14:12.000Z,99
2023-05-12T06:15:39.000Z,99
2023-05-12T06:17:45.000Z,98
2023-05-12T06:19:12.000Z,96
2023-05-12T06:21:18.000Z,96
2023-05-12T06:22:44.000Z,97
2023-05-12T06:24:51.000Z,96
2023-05-12T06:26:17.000Z,96
2023-05-12T06:28:23.000Z,96
2023-05-12T06:29:50.000Z,97
2023-05-12T06:31:56.000Z,95
2023-05-12T06:33:22.000Z,96
2023-05-12T06:35:28.000Z,95
2023-05-12T06:36:55.000Z,96
2023-05-12T06:39:01.000Z,95
2023-05-12T06:41:52.000Z,96
2023-05-12T06:43:19.000Z,95
2023-05-12T06:45:25.000Z,94
2023-05-12T06:46:51.000Z,95
2023-05-12T06:48:57.000Z,95
2023-05-12T06:50:24.000Z,95
2023-05-12T06:52:30.000Z,95
2023-05-12T06:53:56.000Z,95
2023-05-12T06:56:02.000Z,94
2023-05-12T06:57:29.000Z,94
2023-05-12T06:59:35.000Z,94
2023-05-12T07:01:02.000Z,93
2023-05-12T07:03:08.000Z,93
2023-05-12T07:04:34.000Z,92
2023-05-12T07:06:40.000Z,92
2023-05-12T07:08:07.000Z,92
2023-05-12T07:10:13.000Z,92
2023-05-12T07:11:40.000Z,91
2023-05-12T07:13:46.000Z,92
2023-05-12T07:15:12.000Z,91
2023-05-12T07:17:18.000Z,92
2023-05-12T07:20:10.000Z,91
2023-05-12T07:21:36.000Z,92
2023-05-12T07:23:42.000Z,92
2023-05-12T07:25:09.000Z,92
2023-05-12T07:27:15.000Z,92
2023-05-12T07:28:41.000Z,91
2023-05-12T07:30:47.000Z,91
2023-05-12T07:32:14.000Z,92
2023-05-12T07:34:20.000Z,91
2023-05-12T07:35:46.000Z,90
2023-05-12T07:37:53.000Z,90
2023-05-12T07:39:19.000Z,90
2023-05-12T07:41:25.000Z,91
2023-05-12T07:42:52.000Z,89
2023-05-12T07:44:58.000Z,89
2023-05-12T07:46:24.000Z,88
2023-05-12T07:48:31.000Z,89
2023-05-12T07:49:57.000Z,89
2023-05-12T07:52:04.000Z,88
2023-05-12T07:53:30.000Z,88
2023-05-12T07:55:36.000Z,89
2023-05-12T07:58:27.000Z,88
2023-05-12T07:59:54.000Z,88
2023-05-12T08:02:00.000Z,89
2023-05-12T08:03:27.000Z,88
2023-05-12T08:05:33.000Z,89
2023-05-12T08:06:59.000Z,88
2023-05-12T08:09:06.000Z,88
2023-05-12T08:10:32.000Z,87
2023-05-12T08:12:38.000Z,90
2023-05-12T08:14:05.000Z,88
2023-05-12T08:16:11.000Z,87
2023-05-12T08:17:37.000Z,87
2023-05-12T08:19:44.000Z,87
2023-05-12T08:21:10.000Z,88
2023-05-12T08:23:16.000Z,86
2023-05-12T08:24:43.000Z,88
2023-05-12T08:26:49.000Z,88
2023-05-12T08:28:16.000Z,86
2023-05-12T08:30:22.000Z,87
2023-05-12T08:31:49.000Z,86
2023-05-12T08:36:50.000Z,85
2023-05-12T08:38:16.000Z,84
2023-05-12T08:40:23.000Z,84
2023-05-12T08:41:49.000Z,84
2023-05-12T08:43:55.000Z,84
2023-05-12T08:45:22.000Z,84
2023-05-12T08:47:28.000Z,83
2023-05-12T08:48:55.000Z,84
2023-05-12T08:51:01.000Z,83
2023-05-12T08:52:27.000Z,83
2023-05-12T08:54:33.000Z,83
2023-05-12T08:58:15.000Z,83
2023-05-12T08:59:41.000Z,84
2023-05-12T09:01:47.000Z,82
2023-05-12T09:03:14.000Z,84
2023-05-12T09:05:20.000Z,80
2023-05-12T09:06:47.000Z,81
2023-05-12T09:08:53.000Z,81
2023-05-12T09:10:20.000Z,83
2023-05-12T09:12:40.000Z,81
2023-05-12T09:15:32.000Z,82
2023-05-12T09:16:58.000Z,81
2023-05-12T09:19:04.000Z,83
2023-05-12T09:20:33.000Z,81
2023-05-12T09:22:40.000Z,79
2023-05-12T09:24:06.000Z,79
2023-05-12T09:26:12.000Z,80
2023-05-12T09:27:39.000Z,80
2023-05-12T09:29:45.000Z,80
2023-05-12T09:31:25.000Z,79
2023-05-12T09:33:32.000Z,80
2023-05-12T09:34:58.000Z,79
2023-05-12T09:37:04.000Z,78
2023-05-12T09:38:31.000Z,80
2023-05-12T09:40:37.000Z,81
2023-05-12T09:42:03.000Z,79
2023-05-12T09:44:09.000Z,79
2023-05-12T09:45:36.000Z,79
2023-05-12T09:47:42.000Z,81
2023-05-12T09:49:09.000Z,79
2023-05-12T09:51:15.000Z,78
2023-05-12T09:54:06.000Z,79
2023-05-12T09:55:34.000Z,77
2023-05-12T09:57:40.000Z,77
2023-05-12T09:59:06.000Z,76
2023-05-12T10:01:13.000Z,76
2023-05-12T10:02:49.000Z,76
2023-05-12T10:04:56.000Z,75
2023-05-12T10:06:22.000Z,75
2023-05-12T10:08:28.000Z,76
2023-05-12T10:09:55.000Z,75
2023-05-12T10:12:01.000Z,76
2023-05-12T10:13:28.000Z,74
2023-05-12T10:15:34.000Z,75
2023-05-12T10:17:00.000Z,72
2023-05-12T10:19:07.000Z,74
2023-05-12T10:20:33.000Z,75
2023-05-12T10:22:39.000Z,75
2023-05-12T10:24:06.000Z,75
2023-05-12T10:26:12.000Z,72
2023-05-12T10:27:39.000Z,73
2023-05-12T10:29:45.000Z,73
2023-05-12T10:32:36.000Z,73
2023-05-12T10:34:03.000Z,73
2023-05-12T10:36:09.000Z,74
2023-05-12T10:37:35.000Z,75
2023-05-12T10:39:41.000Z,72
2023-05-12T10:41:08.000Z,72
2023-05-12T10:43:14.000Z,74
2023-05-12T10:44:40.000Z,74
2023-05-12T10:46:47.000Z,71
2023-05-12T10:48:13.000Z,71
2023-05-12T10:50:20.000Z,71
2023-05-12T10:51:46.000Z,69
2023-05-12T10:53:52.000Z,69
2023-05-12T10:55:21.000Z,70
2023-05-12T10:57:27.000Z,68
2023-05-12T10:58:54.000Z,67
2023-05-12T11:01:01.000Z,66
2023-05-12T11:02:28.000Z,67
2023-05-12T11:04:36.000Z,66
2023-05-12T11:06:03.000Z,64
2023-05-12T11:08:11.000Z,63
2023-05-12T11:11:02.000Z,63
2023-05-12T11:12:29.000Z,63
2023-05-12T11:14:36.000Z,63
2023-05-12T11:16:02.000Z,64
2023-05-12T11:18:08.000Z,64
2023-05-12T11:19:35.000Z,64
2023-05-12T11:21:41.000Z,65
2023-05-12T11:23:08.000Z,62
2023-05-12T11:25:14.000Z,62
2023-05-12T11:26:40.000Z,61
2023-05-12T11:28:46.000Z,60
2023-05-12T11:30:13.000Z,57
2023-05-12T11:32:19.000Z,59
2023-05-12T11:33:46.000Z,59
2023-05-12T11:35:52.000Z,59
2023-05-12T11:37:18.000Z,56
2023-05-12T11:39:24.000Z,55
2023-05-12T11:40:51.000Z,55
2023-05-12T11:42:57.000Z,57
2023-05-12T11:44:23.000Z,55
2023-05-12T11:46:30.000Z,57
2023-05-12T11:49:21.000Z,56
2023-05-12T11:50:47.000Z,56
2023-05-12T11:52:53.000Z,55
2023-05-12T11:54:20.000Z,57
2023-05-12T11:56:26.000Z,59
2023-05-12T11:57:53.000Z,59
2023-05-12T11:59:59.000Z,58
2023-05-12T12:01:25.000Z,56
2023-05-12T12:03:31.000Z,56
2023-05-12T12:04:58.000Z,58
2023-05-12T12:07:04.000Z,56
2023-05-12T12:08:31.000Z,54
2023-05-12T12:10:37.000Z,56
2023-05-12T12:12:03.000Z,55
2023-05-12T12:14:10.000Z,57
2023-05-12T12:15:36.000Z,57
2023-05-12T12:17:42.000Z,58
2023-05-12T12:19:09.000Z,58
2023-05-12T12:21:15.000Z,58
2023-05-12T12:22:45.000Z,52
2023-05-12T12:24:51.000Z,55
2023-05-12T12:27:42.000Z,51
2023-05-12T12:29:08.000Z,51
2023-05-12T12:31:14.000Z,53
2023-05-12T12:32:41.000Z,51
2023-05-12T12:34:47.000Z,52
2023-05-12T12:36:13.000Z,53
2023-05-12T12:38:20.000Z,58
2023-05-12T12:39:46.000Z,60
2023-05-12T12:41:52.000Z,61
2023-05-12T12:43:19.000Z,61
2023-05-12T12:45:25.000Z,62
2023-05-12T12:46:52.000Z,62
2023-05-12T12:48:58.000Z,62
2023-05-12T12:50:25.000Z,62
2023-05-12T12:52:33.000Z,63
2023-05-12T12:53:59.000Z,63
2023-05-12T12:56:06.000Z,64
2023-05-12T12:57:32.000Z,65
2023-05-12T12:59:38.000Z,66
2023-05-12T13:01:05.000Z,66
2023-05-12T13:03:11.000Z,66
2023-05-12T13:06:03.000Z,65
2023-05-12T13:07:29.000Z,66
2023-05-12T13:09:35.000Z,66
2023-05-12T13:11:02.000Z,64
2023-05-12T13:13:08.000Z,65
2023-05-12T13:14:34.000Z,66
2023-05-12T13:16:41.000Z,65
2023-05-12T13:18:07.000Z,64
2023-05-12T13:20:13.000Z,64
2023-05-12T13:21:40.000Z,64
2023-05-12T13:23:46.000Z,64
2023-05-12T13:25:12.000Z,64
2023-05-12T13:27:19.000Z,64
2023-05-12T13:28:45.000Z,64
2023-05-12T13:30:51.000Z,64
2023-05-12T13:32:18.000Z,64
2023-05-12T13:34:24.000Z,65
2023-05-12T13:35:50.000Z,67
2023-05-12T13:37:56.000Z,66
2023-05-12T13:39:23.000Z,65
2023-05-12T13:41:29.000Z,62
2023-05-12T13:44:20.000Z,62
2023-05-12T13:45:47.000Z,62
2023-05-12T13:47:53.000Z,62
2023-05-12T13:49:20.000Z,60
2023-05-12T13:51:26.000Z,61
2023-05-12T13:52:52.000Z,62
2023-05-12T13:54:59.000Z,62
2023-05-12T13:56:25.000Z,62
2023-05-12T13:58:31.000Z,62
2023-05-12T13:59:58.000Z,62
2023-05-12T14:02:04.000Z,65
2023-05-12T14:03:31.000Z,64
2023-05-12T14:05:37.000Z,65
2023-05-12T14:07:03.000Z,63
2023-05-12T14:09:11.000Z,62
2023-05-12T14:10:37.000Z,64
2023-05-12T15:26:59.000Z,74
2023-05-12T15:28:25.000Z,74
2023-05-12T15:30:31.000Z,75
2023-05-12T15:31:58.000Z,75
2023-05-12T15:34:04.000Z,75
2023-05-12T15:35:31.000Z,76
2023-05-12T15:37:37.000Z,75
2023-05-12T15:39:03.000Z,75
2023-05-12T15:41:09.000Z,76
2023-05-12T15:42:36.000Z,76
2023-05-12T15:44:42.000Z,77
2023-05-12T15:46:09.000Z,76
2023-05-12T15:48:15.000Z,77
2023-05-12T15:49:41.000Z,76
2023-05-12T15:51:47.000Z,77
2023-05-12T15:53:14.000Z,78
2023-05-12T15:55:20.000Z,77
2023-05-12T15:56:47.000Z,78
2023-05-12T15:58:53.000Z,79
2023-05-12T16:00:20.000Z,79
2023-05-12T16:02:26.000Z,79
2023-05-12T16:05:17.000Z,79
2023-05-12T16:06:44.000Z,80
2023-05-12T16:08:50.000Z,79
2023-05-12T16:10:16.000Z,79
2023-05-12T16:12:22.000Z,80
2023-05-12T16:13:49.000Z,79
2023-05-12T16:15:55.000Z,80
2023-05-12T16:17:21.000Z,79
2023-05-12T16:19:28.000Z,78
2023-05-12T16:20:54.000Z,77
2023-05-12T16:23:00.000Z,77
2023-05-12T16:24:27.000Z,77
2023-05-12T16:26:33.000Z,76
2023-05-12T16:27:59.000Z,77
2023-05-12T16:30:06.000Z,79
2023-05-12T16:31:32.000Z,80
2023-05-12T16:33:38.000Z,81
2023-05-12T16:35:05.000Z,81
2023-05-12T16:37:11.000Z,81
2023-05-12T16:38:37.000Z,81
2023-05-12T16:40:44.000Z,81
2023-05-12T16:43:34.000Z,83
2023-05-12T16:45:01.000Z,82
2023-05-12T16:47:07.000Z,83
2023-05-12T16:48:34.000Z,85
2023-05-12T16:50:40.000Z,84
2023-05-12T16:52:06.000Z,83
2023-05-12T16:54:13.000Z,83
2023-05-12T16:55:39.000Z,84
2023-05-12T16:57:45.000Z,84
2023-05-12T16:59:12.000Z,84
2023-05-12T17:01:18.000Z,83
2023-05-12T17:02:44.000Z,84
2023-05-12T17:04:51.000Z,83
2023-05-12T17:06:17.000Z,85
2023-05-12T17:08:23.000Z,84
2023-05-12T17:09:50.000Z,83
2023-05-12T17:11:56.000Z,85
2023-05-12T17:37:15.000Z,87
2023-05-12T17:39:00.000Z,87
2023-05-12T17:41:06.000Z,87
2023-05-12T17:42:33.000Z,87
2023-05-12T17:44:39.000Z,86
2023-05-12T17:46:06.000Z,87
2023-05-12T17:48:12.000Z,87
2023-05-12T17:49:38.000Z,87
2023-05-12T17:51:44.000Z,86
2023-05-12T17:53:11.000Z,87
2023-05-12T17:55:17.000Z,86
2023-05-12T17:56:43.000Z,87
2023-05-12T17:58:50.000Z,86
2023-05-12T18:00:16.000Z,87
2023-05-12T18:02:22.000Z,87
2023-05-12T18:05:14.000Z,88
2023-05-12T18:06:40.000Z,88
2023-05-12T18:08:46.000Z,89
2023-05-12T18:10:13.000Z,88
2023-05-12T18:12:19.000Z,88
2023-05-12T18:13:45.000Z,86
2023-05-12T18:15:51.000Z,86
2023-05-12T18:17:18.000Z,86
2023-05-12T18:19:24.000Z,88
2023-05-12T18:20:51.000Z,88
2023-05-12T18:22:57.000Z,88
2023-05-12T18:24:23.000Z,88
2023-05-12T18:26:29.000Z,89
2023-05-12T18:27:56.000Z,89
2023-05-12T18:30:02.000Z,89
2023-05-12T18:31:28.000Z,89
2023-05-12T18:33:35.000Z,90
2023-05-12T18:35:01.000Z,89
2023-05-12T18:37:07.000Z,89
2023-05-12T18:38:34.000Z,90
2023-05-12T18:40:40.000Z,91
2023-05-12T18:43:31.000Z,92
2023-05-12T18:44:58.000Z,91
2023-05-12T18:47:04.000Z,94
2023-05-12T18:48:30.000Z,93
2023-05-12T18:50:36.000Z,93
2023-05-12T18:52:03.000Z,92
2023-05-12T18:54:09.000Z,93
2023-05-12T18:55:35.000Z,92
2023-05-12T18:57:42.000Z,92
2023-05-12T18:59:08.000Z,93
2023-05-12T19:01:14.000Z,94
2023-05-12T19:02:41.000Z,94
2023-05-12T19:04:47.000Z,94
2023-05-12T19:06:13.000Z,94
2023-05-12T19:08:20.000Z,95
2023-05-12T19:09:46.000Z,94
2023-05-12T19:11:52.000Z,95
2023-05-12T19:13:19.000Z,95
2023-05-12T19:15:25.000Z,96
2023-05-12T19:16:51.000Z,95
2023-05-12T19:18:57.000Z,95
2023-05-12T19:21:49.000Z,94
2023-05-12T19:23:15.000Z,95
2023-05-12T19:25:21.000Z,95
2023-05-12T19:26:48.000Z,95
2023-05-12T19:28:54.000Z,95
2023-05-12T19:30:21.000Z,96
2023-05-12T19:32:27.000Z,95
2023-05-12T19:33:54.000Z,95
2023-05-12T19:36:00.000Z,95
2023-05-12T19:37:26.000Z,94
2023-05-12T19:39:32.000Z,94
2023-05-12T19:40:59.000Z,94
2023-05-12T19:43:05.000Z,94
2023-05-12T19:44:31.000Z,94
2023-05-12T19:46:38.000Z,94
2023-05-12T19:48:04.000Z,94
2023-05-12T19:50:10.000Z,94
2023-05-12T19:51:37.000Z,95
2023-05-12T19:53:43.000Z,95
2023-05-12T19:55:10.000Z,94
2023-05-12T19:57:16.000Z,94
2023-05-12T20:00:07.000Z,94
2023-05-12T20:01:33.000Z,94
2023-05-12T20:03:40.000Z,95
2023-05-12T20:05:06.000Z,95
2023-05-12T20:07:12.000Z,95
2023-05-12T20:08:39.000Z,95
2023-05-12T20:10:45.000Z,95
2023-05-12T20:12:11.000Z,96
2023-05-12T20:14:17.000Z,97
2023-05-12T20:15:44.000Z,96
2023-05-12T20:17:50.000Z,95
2023-05-12T20:19:17.000Z,95
2023-05-12T20:21:23.000Z,95
2023-05-12T20:22:50.000Z,95
2023-05-12T20:24:56.000Z,96
2023-05-12T20:26:23.000Z,96
2023-05-12T20:28:29.000Z,96
2023-05-12T20:29:56.000Z,96
2023-05-12T20:32:02.000Z,96
2023-05-12T20:33:28.000Z,96
2023-05-12T20:35:34.000Z,97
2023-05-12T20:38:25.000Z,97
2023-05-12T20:39:52.000Z,96
2023-05-12T20:41:58.000Z,96
2023-05-12T20:43:25.000Z,96
2023-05-12T20:45:31.000Z,96
2023-05-12T20:46:57.000Z,96
2023-05-12T20:49:03.000Z,96
2023-05-12T20:50:30.000Z,97
2023-05-12T20:52:36.000Z,97
2023-05-12T20:54:03.000Z,97
2023-05-12T20:56:09.000Z,96
2023-05-12T20:57:36.000Z,96
2023-05-12T20:59:43.000Z,95
2023-05-12T21:01:09.000Z,95
2023-05-12T21:03:15.000Z,95
2023-05-12T21:04:42.000Z,96
2023-05-12T21:06:48.000Z,96
2023-05-12T21:08:14.000Z,96
2023-05-12T21:10:21.000Z,96
2023-05-12T21:11:48.000Z,96
2023-05-12T21:13:54.000Z,96
2023-05-12T21:16:45.000Z,97
2023-05-12T21:18:11.000Z,97
2023-05-12T21:20:18.000Z,97
2023-05-12T21:21:44.000Z,97
2023-05-12T21:23:50.000Z,97
2023-05-12T21:25:17.000Z,97
2023-05-12T21:27:23.000Z,97
2023-05-12T21:28:50.000Z,97
2023-05-12T21:30:56.000Z,97
2023-05-12T21:32:22.000Z,97
2023-05-12T21:34:28.000Z,97
2023-05-12T21:35:55.000Z,98
2023-05-12T21:38:01.000Z,98
2023-05-12T21:39:27.000Z,98
2023-05-12T21:41:34.000Z,98
2023-05-12T21:43:00.000Z,98
2023-05-12T21:45:06.000Z,98
2023-05-12T21:46:33.000Z,98
2023-05-12T21:48:39.000Z,98
2023-05-12T21:50:06.000Z,98
2023-05-12T21:52:12.000Z,98
2023-05-12T21:55:03.000Z,98
2023-05-12T21:56:29.000Z,98
2023-05-12T21:58:35.000Z,98
2023-05-12T22:00:02.000Z,98
2023-05-12T22:02:08.000Z,98
2023-05-12T22:03:34.000Z,98
2023-05-12T22:05:41.000Z,98
2023-05-12T22:07:07.000Z,98
2023-05-12T22:09:13.000Z,98
2023-05-12T22:10:40.000Z,98
2023-05-12T22:12:46.000Z,98
2023-05-12T22:14:12.000Z,98
2023-05-12T22:16:19.000Z,98
2023-05-12T22:17:52.000Z,98
2023-05-12T22:19:58.000Z,98
2023-05-12T22:21:25.000Z,98
2023-05-12T22:23:31.000Z,97
2023-05-12T22:24:57.000Z,97
2023-05-12T22:27:03.000Z,97
2023-05-12T22:28:30.000Z,97
2023-05-12T22:30:36.000Z,97
2023-05-12T22:33:27.000Z,98
2023-05-12T22:34:54.000Z,97
2023-05-12T22:37:00.000Z,98
2023-05-12T22:38:26.000Z,98
2023-05-12T22:40:33.000Z,98
2023-05-12T22:41:59.000Z,99
2023-05-12T22:44:05.000Z,99
2023-05-12T22:45:32.000Z,99
2023-05-12T22:47:38.000Z,99
2023-05-12T22:49:04.000Z,100
2023-05-12T22:51:10.000Z,100
2023-05-12T22:52:37.000Z,100
2023-05-12T22:54:43.000Z,100
2023-05-12T22:56:10.000Z,100
2023-05-12T22:58:16.000Z,99
2023-05-12T22:59:42.000Z,99
2023-05-12T23:01:48.000Z,99
2023-05-12T23:03:15.000Z,99
2023-05-12T23:05:21.000Z,100
2023-05-12T23:06:47.000Z,100
2023-05-12T23:08:54.000Z,100
2023-05-12T23:11:45.000Z,100
2023-05-12T23:13:11.000Z,100
2023-05-12T23:15:17.000Z,100
2023-05-12T23:16:44.000Z,100
2023-05-12T23:18:50.000Z,99
2023-05-12T23:20:16.000Z,100
2023-05-12T23:22:23.000Z,100
2023-05-12T23:23:49.000Z,100
2023-05-12T23:25:55.000Z,100
2023-05-12T23:27:22.000Z,100
2023-05-12T23:29:28.000Z,100
2023-05-12T23:30:54.000Z,100
2023-05-12T23:33:00.000Z,100
2023-05-12T23:34:27.000Z,100
2023-05-12T23:36:33.000Z,100
2023-05-12T23:38:00.000Z,100
2023-05-12T23:40:06.000Z,100
2023-05-12T23:41:32.000Z,100
2023-05-12T23:43:39.000Z,100
2023-05-12T23:45:05.000Z,100
2023-05-12T23:47:11.000Z,100
2023-05-12T23:50:02.000Z,100
2023-05-12T23:51:29.000Z,100
2023-05-12T23:53:35.000Z,100
2023-05-12T23:55:01.000Z,100
2023-05-12T23:57:07.000Z,100
2023-05-12T23:58:34.000Z,99
